Time;durP1;ratioP1;P1;durP2;ratioP2;P2;SDS_P1;SDS_P2;PMS_P1;PMS_P2;Temp;Humidity;BMP_temperature;BMP_pressure;BME280_temperature;BME280_humidity;BME280_pressure;Samples;Min_cycle;Max_cycle;Signal;HPM_P1;HPM_P2
2024/04/02 00:02:06;;;;;;;1.50;0.90;;;23.90;59.20;;;;;;5053859;28;20437;-85
2024/04/02 00:04:32;;;;;;;1.70;0.90;;;24.00;59.20;;;;;;5054947;28;20769;-85
2024/04/02 00:06:59;;;;;;;1.50;0.70;;;23.90;59.10;;;;;;5054218;28;20471;-85
2024/04/02 00:09:25;;;;;;;2.00;0.90;;;23.80;59.20;;;;;;5053901;28;20201;-85
2024/04/02 00:11:51;;;;;;;1.50;0.83;;;23.80;59.20;;;;;;5053799;28;20524;-86
2024/04/02 00:14:17;;;;;;;2.77;1.27;;;23.90;59.20;;;;;;5053883;28;20444;-86
2024/04/02 00:16:45;;;;;;;1.77;0.87;;;23.80;59.10;;;;;;5053788;28;20441;-85
2024/04/02 00:19:12;;;;;;;1.60;0.97;;;23.80;59.10;;;;;;5053847;28;20232;-86
2024/04/02 00:21:39;;;;;;;1.70;0.97;;;23.80;59.20;;;;;;5053559;28;20507;-94
2024/04/02 00:24:05;;;;;;;1.60;0.90;;;23.80;59.20;;;;;;5053922;28;20440;-85
2024/04/02 00:26:32;;;;;;;1.50;0.80;;;23.80;59.20;;;;;;5053689;28;20438;-86
2024/04/02 00:28:58;;;;;;;1.50;0.97;;;23.80;59.30;;;;;;5054182;28;20452;-86
2024/04/02 00:31:24;;;;;;;1.50;0.83;;;23.80;59.30;;;;;;5053871;28;20516;-85
2024/04/02 00:33:52;;;;;;;1.50;0.80;;;23.80;59.20;;;;;;5053580;28;20433;-85
2024/04/02 00:36:19;;;;;;;2.90;1.00;;;23.70;59.20;;;;;;5053798;28;20465;-86
2024/04/02 00:38:45;;;;;;;1.70;0.90;;;23.80;59.30;;;;;;5053954;28;20479;-86
2024/04/02 00:41:11;;;;;;;1.60;0.90;;;23.70;59.30;;;;;;5053946;28;20437;-86
2024/04/02 00:43:37;;;;;;;1.53;0.90;;;23.80;59.30;;;;;;5054175;28;20217;-86
2024/04/02 00:46:04;;;;;;;1.43;0.77;;;23.70;59.20;;;;;;5054706;28;20525;-86
2024/04/02 00:48:30;;;;;;;1.50;0.70;;;23.70;59.10;;;;;;5056960;28;20202;-87
2024/04/02 00:50:58;;;;;;;1.50;0.70;;;23.70;59.30;;;;;;5078054;28;20497;-91
2024/04/02 00:53:24;;;;;;;1.40;0.80;;;23.70;59.30;;;;;;5077927;28;20175;-87
2024/04/02 00:55:52;;;;;;;1.50;0.70;;;23.70;59.20;;;;;;5053759;28;20444;-86
2024/04/02 00:58:18;;;;;;;1.60;0.80;;;23.70;59.40;;;;;;5052999;28;20440;-87
2024/04/02 01:00:45;;;;;;;1.87;0.70;;;23.70;59.40;;;;;;5057027;28;20567;-86
2024/04/02 01:03:12;;;;;;;1.40;0.70;;;23.70;59.30;;;;;;5057532;28;20445;-87
2024/04/02 01:05:39;;;;;;;1.50;0.80;;;23.70;59.30;;;;;;5057141;28;20444;-87
2024/04/02 01:08:10;;;;;;;1.70;0.90;;;23.70;59.30;;;;;;5057454;28;20486;-86
2024/04/02 01:10:38;;;;;;;1.60;0.90;;;23.70;59.20;;;;;;5056616;28;20445;-86
2024/04/02 01:13:05;;;;;;;1.50;0.80;;;23.70;59.20;;;;;;5057149;28;20481;-87
2024/04/02 01:15:30;;;;;;;1.50;0.80;;;23.70;59.20;;;;;;5057250;28;20464;-86
2024/04/02 01:17:57;;;;;;;1.70;0.90;;;23.70;59.20;;;;;;5057116;28;20528;-86
2024/04/02 01:20:23;;;;;;;3.90;1.00;;;23.70;59.20;;;;;;5057030;28;20233;-88
2024/04/02 01:22:50;;;;;;;1.50;0.80;;;23.70;59.20;;;;;;5056893;28;20445;-87
2024/04/02 01:25:20;;;;;;;1.60;0.97;;;23.70;59.20;;;;;;5057138;28;20198;-86
2024/04/02 01:27:48;;;;;;;1.50;0.87;;;23.70;59.10;;;;;;5056762;28;20924;-86
2024/04/02 01:30:14;;;;;;;1.60;0.90;;;23.70;59.10;;;;;;5056438;28;20815;-87
2024/04/02 01:32:41;;;;;;;1.90;1.00;;;23.80;59.20;;;;;;5057028;28;20531;-87
2024/04/02 01:35:06;;;;;;;1.80;0.73;;;23.80;59.10;;;;;;5056613;28;20641;-87
2024/04/02 01:37:33;;;;;;;1.60;0.80;;;23.80;59.10;;;;;;5056311;28;20451;-86
2024/04/02 01:39:59;;;;;;;1.43;0.80;;;23.80;59.00;;;;;;5056773;28;20218;-86
2024/04/02 01:42:27;;;;;;;1.40;0.70;;;23.80;59.00;;;;;;5056427;28;20447;-86
2024/04/02 01:44:53;;;;;;;2.10;0.90;;;23.80;59.10;;;;;;5056627;28;20197;-86
2024/04/02 01:47:20;;;;;;;1.50;1.00;;;23.80;59.10;;;;;;5056381;28;20543;-86
2024/04/02 01:49:45;;;;;;;1.40;0.70;;;23.80;59.00;;;;;;5056374;28;20202;-87
2024/04/02 01:52:12;;;;;;;1.50;0.80;;;23.80;58.90;;;;;;5059839;28;20944;-86
2024/04/02 01:54:38;;;;;;;1.93;0.90;;;23.80;58.90;;;;;;5063919;28;20290;-87
2024/04/02 01:57:05;;;;;;;1.40;0.80;;;23.80;58.90;;;;;;5061106;28;20469;-86
2024/04/02 01:59:32;;;;;;;1.60;0.80;;;23.80;58.80;;;;;;5067567;28;20226;-86
2024/04/02 02:01:59;;;;;;;1.60;0.83;;;23.80;58.70;;;;;;5057645;28;20438;-86
2024/04/02 02:04:25;;;;;;;2.50;0.90;;;24.00;58.90;;;;;;5056620;28;20776;-85
2024/04/02 02:06:52;;;;;;;1.40;0.70;;;23.90;58.90;;;;;;5056345;28;20456;-86
2024/04/02 02:09:17;;;;;;;1.50;0.80;;;23.90;58.90;;;;;;5056174;28;20463;-87
2024/04/02 02:11:44;;;;;;;1.40;0.70;;;23.80;58.70;;;;;;5056210;28;20936;-87
2024/04/02 02:14:11;;;;;;;1.50;0.80;;;23.90;58.60;;;;;;5056430;28;20199;-86
2024/04/02 02:16:39;;;;;;;1.40;0.70;;;23.90;58.80;;;;;;5056271;28;20488;-86
2024/04/02 02:19:05;;;;;;;1.50;0.70;;;24.00;58.80;;;;;;5056246;28;20481;-86
2024/04/02 02:21:32;;;;;;;1.50;0.83;;;23.90;58.70;;;;;;5057232;28;20477;-86
2024/04/02 02:23:58;;;;;;;1.50;0.83;;;23.90;58.80;;;;;;5056808;28;20198;-86
2024/04/02 02:26:24;;;;;;;1.40;0.70;;;23.90;58.70;;;;;;5055712;28;20441;-86
2024/04/02 02:28:50;;;;;;;1.50;0.70;;;23.90;58.70;;;;;;5055468;28;20194;-86
2024/04/02 02:31:17;;;;;;;1.40;0.67;;;23.90;58.70;;;;;;5056122;28;20789;-86
2024/04/02 02:33:47;;;;;;;1.40;0.70;;;23.90;58.70;;;;;;5056285;28;20201;-86
2024/04/02 02:36:14;;;;;;;3.17;0.77;;;23.90;58.70;;;;;;5055327;28;20563;-86
2024/04/02 02:38:39;;;;;;;1.87;0.80;;;23.90;58.60;;;;;;5055511;28;20806;-86
2024/04/02 02:41:06;;;;;;;1.40;0.80;;;23.90;58.60;;;;;;5055217;28;20476;-85
2024/04/02 02:43:34;;;;;;;1.40;0.73;;;23.90;58.70;;;;;;5055218;28;20647;-86
2024/04/02 02:46:01;;;;;;;1.40;0.70;;;23.90;58.70;;;;;;5055447;28;20509;-86
2024/04/02 02:48:27;;;;;;;1.73;0.80;;;23.90;58.70;;;;;;5055248;28;20449;-85
2024/04/02 02:50:55;;;;;;;1.50;0.80;;;23.90;58.60;;;;;;5054960;28;20442;-85
2024/04/02 02:53:21;;;;;;;1.50;0.80;;;23.90;58.70;;;;;;5055524;28;20205;-86
2024/04/02 02:55:54;;;;;;;1.50;0.70;;;24.00;58.60;;;;;;5055508;28;20963;-86
2024/04/02 02:58:20;;;;;;;1.50;0.80;;;24.00;58.70;;;;;;5055256;28;20222;-85
2024/04/02 03:00:47;;;;;;;1.60;0.80;;;24.00;58.60;;;;;;5054788;28;20485;-85
2024/04/02 03:03:12;;;;;;;1.40;0.80;;;24.10;58.70;;;;;;5055042;28;20448;-85
2024/04/02 03:05:40;;;;;;;3.70;0.80;;;24.00;58.60;;;;;;5055094;28;20441;-86
2024/04/02 03:08:07;;;;;;;1.60;0.87;;;24.10;58.50;;;;;;5054648;28;20217;-85
2024/04/02 03:10:35;;;;;;;1.60;0.80;;;24.00;58.50;;;;;;5054867;28;20773;-85
2024/04/02 03:13:02;;;;;;;1.50;0.80;;;24.00;58.50;;;;;;5054965;28;20533;-85
2024/04/02 03:15:27;;;;;;;1.40;0.70;;;24.00;58.50;;;;;;5055071;28;20797;-86
2024/04/02 03:17:55;;;;;;;1.50;0.83;;;24.00;58.50;;;;;;5054828;28;20445;-86
2024/04/02 03:20:20;;;;;;;1.80;0.80;;;24.00;58.50;;;;;;5054390;28;20685;-86
2024/04/02 03:22:47;;;;;;;1.60;0.70;;;24.00;58.50;;;;;;5054096;28;20494;-86
2024/04/02 03:25:14;;;;;;;1.40;0.67;;;24.00;58.50;;;;;;5054401;28;20201;-86
2024/04/02 03:27:41;;;;;;;1.63;0.70;;;23.90;58.50;;;;;;5054748;28;20528;-86
2024/04/02 03:30:08;;;;;;;1.50;0.80;;;24.00;58.60;;;;;;5055116;28;20462;-86
2024/04/02 03:32:35;;;;;;;3.17;0.70;;;23.90;58.50;;;;;;5055844;28;20452;-86
2024/04/02 03:35:01;;;;;;;1.50;0.80;;;23.90;58.50;;;;;;5055048;28;20442;-86
2024/04/02 03:37:27;;;;;;;1.40;0.70;;;23.90;58.50;;;;;;5054982;28;20444;-86
2024/04/02 03:39:54;;;;;;;2.60;1.03;;;24.00;58.60;;;;;;5054696;28;20236;-86
2024/04/02 03:42:22;;;;;;;1.40;0.70;;;23.90;58.50;;;;;;5054868;28;20536;-86
2024/04/02 03:44:49;;;;;;;1.50;0.80;;;23.90;58.60;;;;;;5055149;28;20484;-86
2024/04/02 03:47:15;;;;;;;1.40;0.70;;;23.90;58.50;;;;;;5054922;28;20444;-86
2024/04/02 03:49:45;;;;;;;1.60;0.80;;;23.90;58.60;;;;;;5056456;28;20543;-86
2024/04/02 03:52:10;;;;;;;2.67;0.77;;;23.90;58.50;;;;;;5076880;28;20305;-86
2024/04/02 03:54:37;;;;;;;1.60;0.80;;;24.00;58.60;;;;;;5086193;28;20429;-87
2024/04/02 03:57:03;;;;;;;1.40;0.70;;;23.90;58.50;;;;;;5098725;28;20206;-89
2024/04/02 03:59:35;;;;;;;1.60;0.80;;;23.90;59.10;;;;;;5090682;28;20828;-86
2024/04/02 04:02:01;;;;;;;1.87;0.90;;;24.00;58.50;;;;;;5074498;28;20455;-86
2024/04/02 04:04:27;;;;;;;1.37;0.70;;;24.00;58.50;;;;;;5074282;28;20444;-86
2024/04/02 04:06:54;;;;;;;1.70;0.77;;;23.90;58.60;;;;;;5074171;28;20443;-86
2024/04/02 04:09:21;;;;;;;1.60;0.83;;;23.90;58.40;;;;;;5074514;28;20440;-86
2024/04/02 04:11:47;;;;;;;1.40;0.70;;;23.90;58.50;;;;;;5074410;28;20443;-86
2024/04/02 04:14:14;;;;;;;1.60;0.80;;;23.90;58.40;;;;;;5074549;28;20440;-87
2024/04/02 04:16:41;;;;;;;1.60;0.80;;;23.90;58.40;;;;;;5074314;28;20443;-89
2024/04/02 04:19:08;;;;;;;1.70;0.73;;;23.90;58.40;;;;;;5076994;28;20437;-85
2024/04/02 04:21:34;;;;;;;1.57;0.83;;;23.90;58.40;;;;;;5074148;28;20549;-85
2024/04/02 04:24:02;;;;;;;1.60;0.90;;;24.00;58.50;;;;;;5075921;28;20919;-85
2024/04/02 04:26:28;;;;;;;1.50;0.80;;;23.90;58.50;;;;;;5074211;28;20528;-86
2024/04/02 04:28:55;;;;;;;1.97;0.80;;;23.90;58.50;;;;;;5074185;28;20536;-87
2024/04/02 04:31:20;;;;;;;1.60;0.80;;;23.90;58.40;;;;;;5073450;28;20198;-86
2024/04/02 04:33:49;;;;;;;1.37;0.70;;;23.90;58.30;;;;;;5073484;28;20437;-87
2024/04/02 04:36:15;;;;;;;1.50;0.80;;;24.00;58.40;;;;;;5073304;28;20237;-85
2024/04/02 04:38:41;;;;;;;1.50;0.80;;;24.00;58.40;;;;;;5073685;28;20452;-86
2024/04/02 04:41:07;;;;;;;1.40;0.70;;;24.00;58.40;;;;;;5075920;28;20222;-96
2024/04/02 04:43:34;;;;;;;1.40;0.80;;;24.00;58.40;;;;;;5080487;28;20435;-88
2024/04/02 04:46:00;;;;;;;1.70;1.10;;;24.10;58.50;;;;;;5075216;28;20560;-86
2024/04/02 04:48:27;;;;;;;1.80;0.80;;;24.00;58.40;;;;;;5076356;28;20520;-96
2024/04/02 04:50:59;;;;;;;1.93;0.90;;;24.00;59.00;;;;;;5074970;28;20652;-88
2024/04/02 04:53:26;;;;;;;1.50;0.90;;;24.00;58.30;;;;;;5074734;28;20433;-87
2024/04/02 04:55:57;;;;;;;1.50;0.70;;;24.00;58.30;;;;;;5074818;28;20445;-86
2024/04/02 04:58:24;;;;;;;1.40;0.73;;;24.00;58.30;;;;;;5073946;28;20446;-86
2024/04/02 05:00:50;;;;;;;1.60;0.70;;;24.00;58.30;;;;;;5074460;28;20495;-87
2024/04/02 05:03:17;;;;;;;1.77;1.00;;;24.00;58.30;;;;;;5075426;28;20451;-94
2024/04/02 05:05:42;;;;;;;1.47;0.70;;;24.00;58.30;;;;;;5075385;28;20196;-94
2024/04/02 05:08:25;;;;;;;1.60;0.80;;;24.00;58.30;;;;;;5058109;28;20434;-87
2024/04/02 05:10:52;;;;;;;1.80;0.90;;;24.00;58.30;;;;;;5053552;28;20289;-86
2024/04/02 05:13:20;;;;;;;1.50;0.73;;;24.00;58.40;;;;;;5059796;28;20965;-86
2024/04/02 05:15:46;;;;;;;1.60;0.80;;;24.00;58.30;;;;;;5054288;28;20445;-86
2024/04/02 05:18:13;;;;;;;1.60;0.90;;;24.00;58.30;;;;;;5053677;28;20449;-86
2024/04/02 05:20:39;;;;;;;1.70;0.93;;;24.00;58.20;;;;;;5053122;28;20480;-96
2024/04/02 05:23:06;;;;;;;1.50;0.83;;;24.00;58.30;;;;;;5053239;28;20444;-86
2024/04/02 05:25:34;;;;;;;1.40;0.70;;;24.00;58.30;;;;;;5053356;28;20437;-84
2024/04/02 05:28:01;;;;;;;1.60;0.90;;;24.00;58.30;;;;;;5053110;28;20437;-85
2024/04/02 05:30:27;;;;;;;1.40;0.70;;;24.00;58.20;;;;;;5052362;28;20507;-85
2024/04/02 05:32:54;;;;;;;1.80;0.83;;;24.00;58.30;;;;;;5053336;28;20441;-87
2024/04/02 05:35:20;;;;;;;1.40;0.70;;;24.00;58.30;;;;;;5052684;28;20477;-86
2024/04/02 05:37:48;;;;;;;1.50;0.70;;;24.00;58.90;;;;;;5053010;28;20441;-86
2024/04/02 05:40:14;;;;;;;1.77;0.73;;;24.00;58.30;;;;;;5052662;28;20485;-85
2024/04/02 05:42:43;;;;;;;1.50;0.80;;;24.00;58.30;;;;;;5053008;28;20456;-86
2024/04/02 05:45:09;;;;;;;1.40;0.70;;;24.00;58.40;;;;;;5057187;28;20202;-85
2024/04/02 05:47:36;;;;;;;2.03;0.70;;;24.00;58.30;;;;;;5056227;28;20800;-85
2024/04/02 05:50:02;;;;;;;1.90;0.90;;;24.00;58.30;;;;;;5056048;28;20205;-86
2024/04/02 05:52:29;;;;;;;1.40;0.67;;;24.00;58.30;;;;;;5056550;28;20449;-96
2024/04/02 05:54:55;;;;;;;1.50;0.90;;;24.00;58.30;;;;;;5056349;28;20445;-86
2024/04/02 05:57:21;;;;;;;1.70;0.80;;;24.00;58.40;;;;;;5056859;28;20442;-86
2024/04/02 05:59:50;;;;;;;1.50;0.73;;;24.00;58.40;;;;;;5056253;28;20468;-93
2024/04/02 06:02:16;;;;;;;1.43;0.70;;;24.00;58.40;;;;;;5056008;28;20519;-86
2024/04/02 06:04:43;;;;;;;1.40;0.70;;;24.00;58.50;;;;;;5056220;28;20461;-86
2024/04/02 06:07:09;;;;;;;1.40;0.80;;;24.00;58.40;;;;;;5056031;28;20440;-86
2024/04/02 06:09:36;;;;;;;1.60;0.90;;;24.10;58.50;;;;;;5056466;28;20445;-96
2024/04/02 06:12:03;;;;;;;1.70;0.90;;;24.00;58.40;;;;;;5056538;28;20437;-86
2024/04/02 06:14:29;;;;;;;1.70;0.70;;;24.00;58.40;;;;;;5057547;28;20439;-86
2024/04/02 06:16:57;;;;;;;1.47;0.70;;;24.00;58.40;;;;;;5055829;28;20433;-86
2024/04/02 06:19:23;;;;;;;1.60;0.80;;;24.00;58.40;;;;;;5056159;28;20194;-86
2024/04/02 06:21:50;;;;;;;1.47;0.80;;;24.00;58.60;;;;;;5056502;28;20485;-86
2024/04/02 06:24:16;;;;;;;1.30;0.60;;;24.00;58.60;;;;;;5056338;28;20440;-85
2024/04/02 06:26:42;;;;;;;1.50;0.80;;;24.00;58.60;;;;;;5055836;28;20453;-86
2024/04/02 06:29:08;;;;;;;1.60;0.60;;;24.00;58.50;;;;;;5055837;28;20461;-88
2024/04/02 06:31:35;;;;;;;2.33;0.90;;;24.00;58.30;;;;;;5056024;28;20433;-86
2024/04/02 06:34:02;;;;;;;1.50;0.70;;;24.00;58.20;;;;;;5055524;28;20227;-89
2024/04/02 06:36:29;;;;;;;1.90;0.90;;;24.00;58.50;;;;;;5055854;28;20487;-87
2024/04/02 06:38:55;;;;;;;1.50;0.80;;;24.10;58.60;;;;;;5055900;28;20433;-87
2024/04/02 06:41:22;;;;;;;1.70;1.00;;;24.10;58.50;;;;;;5055295;28;21042;-87
2024/04/02 06:43:47;;;;;;;1.50;0.80;;;24.10;58.50;;;;;;5057232;28;20191;-87
2024/04/02 06:46:14;;;;;;;5.37;0.90;;;24.10;58.60;;;;;;5057734;28;20494;-87
2024/04/02 06:48:40;;;;;;;2.67;1.00;;;24.10;58.70;;;;;;5057303;28;20662;-87
2024/04/02 06:51:08;;;;;;;2.20;0.80;;;24.10;58.70;;;;;;5061158;28;20445;-88
2024/04/02 06:53:34;;;;;;;1.90;0.80;;;24.10;58.70;;;;;;5056259;28;20195;-87
2024/04/02 06:56:01;;;;;;;1.50;0.80;;;24.10;58.70;;;;;;5055434;28;20464;-87
2024/04/02 06:58:28;;;;;;;4.60;0.90;;;24.10;58.70;;;;;;5057835;28;20433;-87
2024/04/02 07:00:55;;;;;;;3.43;0.90;;;24.10;58.50;;;;;;5075671;28;20507;-86
2024/04/02 07:03:22;;;;;;;1.90;1.10;;;24.10;58.70;;;;;;5079795;28;20488;-87
2024/04/02 07:05:52;;;;;;;1.40;0.70;;;24.20;58.90;;;;;;5061250;28;20429;-87
2024/04/02 07:08:23;;;;;;;3.90;1.00;;;24.10;58.80;;;;;;5055094;28;20444;-87
2024/04/02 07:10:59;;;;;;;2.00;0.90;;;24.10;58.80;;;;;;5057606;28;20438;-95
2024/04/02 07:13:25;;;;;;;1.70;0.80;;;24.10;58.80;;;;;;5055979;28;20514;-87
2024/04/02 07:15:53;;;;;;;1.80;0.90;;;24.10;59.60;;;;;;5055257;28;20442;-89
2024/04/02 07:18:19;;;;;;;1.60;0.90;;;24.10;58.80;;;;;;5054894;28;20441;-88
2024/04/02 07:20:46;;;;;;;2.63;1.33;;;24.10;59.10;;;;;;5069846;28;20503;-86
2024/04/02 07:23:11;;;;;;;2.13;0.70;;;24.10;59.10;;;;;;5074174;28;20493;-86
2024/04/02 07:25:40;;;;;;;3.20;0.80;;;24.10;59.00;;;;;;5066868;28;20856;-91
2024/04/02 07:28:06;;;;;;;3.10;0.80;;;24.20;59.10;;;;;;5055006;28;20194;-88
2024/04/02 07:30:33;;;;;;;1.73;0.80;;;24.10;59.00;;;;;;5054424;28;20467;-90
2024/04/02 07:32:59;;;;;;;1.80;0.80;;;24.10;59.10;;;;;;5054430;28;20199;-90
2024/04/02 07:35:25;;;;;;;2.80;0.80;;;24.10;58.90;;;;;;5054715;28;20484;-89
2024/04/02 07:37:51;;;;;;;1.50;0.70;;;24.10;59.10;;;;;;5054611;28;20626;-91
2024/04/02 07:40:18;;;;;;;1.50;0.90;;;24.10;59.10;;;;;;5054174;28;20487;-87
2024/04/02 07:42:45;;;;;;;1.87;1.03;;;24.10;59.00;;;;;;5041150;28;20199;-90
2024/04/02 07:45:15;;;;;;;1.53;0.80;;;24.10;59.00;;;;;;5053895;28;20441;-89
2024/04/02 07:47:42;;;;;;;1.70;0.83;;;24.20;59.10;;;;;;5054319;28;20866;-89
2024/04/02 07:50:09;;;;;;;1.90;0.83;;;24.20;59.10;;;;;;5054182;28;20928;-94
2024/04/02 07:52:36;;;;;;;5.53;0.90;;;24.20;59.50;;;;;;5053824;28;20445;-87
2024/04/02 07:55:02;;;;;;;2.13;0.90;;;24.20;58.80;;;;;;5053962;28;20442;-89
2024/04/02 07:57:29;;;;;;;1.80;0.93;;;24.20;59.00;;;;;;5054877;28;20528;-88
2024/04/02 07:59:56;;;;;;;2.20;0.87;;;24.20;59.00;;;;;;5053909;28;20833;-88
2024/04/02 08:02:23;;;;;;;2.37;0.90;;;24.20;58.90;;;;;;5054733;28;20453;-89
2024/04/02 08:04:51;;;;;;;2.13;1.00;;;24.20;58.80;;;;;;5054010;28;20448;-91
2024/04/02 08:07:18;;;;;;;2.00;0.83;;;24.20;59.00;;;;;;5053909;28;20450;-90
2024/04/02 08:09:44;;;;;;;2.00;1.10;;;24.20;58.80;;;;;;5053389;28;20445;-89
2024/04/02 08:12:11;;;;;;;2.77;0.90;;;24.20;58.80;;;;;;5053767;28;20499;-92
2024/04/02 08:14:37;;;;;;;4.90;1.03;;;24.40;59.10;;;;;;5054174;28;20438;-89
2024/04/02 08:17:05;;;;;;;2.07;0.80;;;24.30;58.80;;;;;;5037987;28;20763;-89
2024/04/02 08:19:31;;;;;;;1.50;0.70;;;24.30;58.60;;;;;;5054775;28;20199;-89
2024/04/02 08:21:58;;;;;;;2.03;0.90;;;24.40;58.90;;;;;;5054465;28;20484;-88
2024/04/02 08:24:25;;;;;;;2.10;1.07;;;24.40;58.70;;;;;;5055319;28;20456;-88
2024/04/02 08:26:52;;;;;;;2.07;0.90;;;24.40;58.80;;;;;;5060172;28;20442;-89
2024/04/02 08:29:18;;;;;;;2.00;0.80;;;24.40;58.70;;;;;;5066968;28;20887;-86
2024/04/02 08:31:45;;;;;;;2.00;0.87;;;24.40;58.80;;;;;;5054448;28;20786;-85
2024/04/02 08:34:12;;;;;;;2.97;0.90;;;24.40;58.70;;;;;;5069858;28;20436;-86
2024/04/02 08:36:40;;;;;;;2.23;0.87;;;24.40;58.60;;;;;;5075386;28;20480;-88
2024/04/02 08:39:08;;;;;;;5.70;0.90;;;24.40;58.60;;;;;;5085454;28;20439;-88
2024/04/02 08:41:38;;;;;;;1.67;0.83;;;24.40;58.70;;;;;;5061141;28;20495;-86
2024/04/02 08:44:05;;;;;;;2.60;0.70;;;24.40;58.60;;;;;;5063600;28;20445;-86
2024/04/02 08:46:34;;;;;;;2.10;0.90;;;24.40;58.50;;;;;;5058709;28;20446;-87
2024/04/02 08:49:01;;;;;;;1.90;0.80;;;24.40;58.60;;;;;;5058707;28;20442;-79
2024/04/02 08:51:30;;;;;;;2.20;1.10;;;24.40;58.80;;;;;;5035107;28;20451;-80
2024/04/02 08:53:58;;;;;;;5.47;2.37;;;24.30;59.00;;;;;;5044032;28;20442;-87
2024/04/02 08:56:25;;;;;;;5.13;2.43;;;24.30;58.90;;;;;;5052610;28;20453;-88
2024/04/02 08:58:53;;;;;;;4.97;2.10;;;24.30;59.20;;;;;;5056879;28;20465;-88
2024/04/02 09:01:20;;;;;;;5.87;2.33;;;24.30;58.70;;;;;;5056567;28;20477;-86
2024/04/02 09:03:47;;;;;;;4.03;1.87;;;24.30;58.80;;;;;;5046691;28;20805;-86
2024/04/02 09:06:14;;;;;;;3.47;1.80;;;24.30;58.70;;;;;;5056886;28;20460;-87
2024/04/02 09:08:46;;;;;;;2.87;1.40;;;24.30;58.30;;;;;;5052857;28;20450;-87
2024/04/02 09:11:13;;;;;;;2.77;1.70;;;24.30;58.00;;;;;;5049673;28;20492;-87
2024/04/02 09:13:39;;;;;;;3.67;2.00;;;24.30;57.90;;;;;;5071098;28;20455;-86
2024/04/02 09:16:06;;;;;;;4.80;1.73;;;24.30;57.90;;;;;;5054305;28;20441;-84
2024/04/02 09:18:35;;;;;;;6.37;2.10;;;24.30;58.30;;;;;;5063781;28;20477;-83
2024/04/02 09:21:03;;;;;;;3.60;1.67;;;24.30;58.80;;;;;;5062139;28;20471;-88
2024/04/02 09:23:29;;;;;;;3.97;1.77;;;24.30;58.80;;;;;;5074110;28;20440;-85
2024/04/02 09:25:58;;;;;;;3.83;1.57;;;24.30;58.80;;;;;;5073336;28;20962;-90
2024/04/02 09:28:24;;;;;;;10.10;2.27;;;24.40;58.80;;;;;;5058891;28;20449;-87
2024/04/02 09:30:51;;;;;;;8.20;2.30;;;24.40;58.80;;;;;;5056717;28;20452;-86
2024/04/02 09:33:18;;;;;;;2.83;1.57;;;24.50;59.00;;;;;;5071962;28;20506;-86
2024/04/02 09:36:09;;;;;;;11.63;2.60;;;24.40;58.70;;;;;;5075578;28;20551;-84
2024/04/02 09:38:36;;;;;;;4.13;1.70;;;24.40;58.50;;;;;;5050259;28;20493;-85
2024/04/02 09:41:05;;;;;;;4.53;1.60;;;24.40;58.50;;;;;;5036410;28;21081;-84
2024/04/02 09:43:32;;;;;;;4.33;1.77;;;24.50;58.40;;;;;;5036183;28;20960;-83
2024/04/02 09:46:01;;;;;;;8.27;2.70;;;24.40;58.40;;;;;;5047610;28;20455;-84
2024/04/02 09:48:30;;;;;;;5.43;2.00;;;24.40;58.40;;;;;;5040548;28;20476;-85
2024/04/02 09:50:58;;;;;;;6.03;1.70;;;24.40;58.50;;;;;;5037033;28;20548;-85
2024/04/02 09:53:25;;;;;;;6.80;2.23;;;24.40;58.30;;;;;;5059327;28;20455;-89
2024/04/02 09:55:53;;;;;;;7.07;1.93;;;24.50;58.40;;;;;;5076205;28;20874;-83
2024/04/02 09:58:21;;;;;;;3.23;1.90;;;24.50;58.30;;;;;;5059258;28;20445;-84
2024/04/02 10:00:51;;;;;;;3.30;2.00;;;24.50;58.30;;;;;;5053381;28;20571;-84
2024/04/02 10:03:18;;;;;;;4.70;1.70;;;24.50;58.30;;;;;;5053510;28;20808;-85
2024/04/02 10:05:45;;;;;;;5.60;1.70;;;24.50;58.50;;;;;;5047337;28;20444;-84
2024/04/02 10:08:12;;;;;;;5.63;1.53;;;24.50;58.30;;;;;;5073443;28;20432;-85
2024/04/02 10:10:41;;;;;;;7.00;2.03;;;24.50;58.30;;;;;;5059931;28;20442;-85
2024/04/02 10:13:07;;;;;;;4.57;1.97;;;24.50;58.30;;;;;;5067237;28;20522;-87
2024/04/02 10:15:35;;;;;;;3.07;1.60;;;24.50;58.40;;;;;;5035968;28;20504;-84
2024/04/02 10:18:02;;;;;;;7.03;2.10;;;24.50;58.40;;;;;;5045111;28;20437;-85
2024/04/02 10:20:31;;;;;;;3.37;1.70;;;24.50;58.30;;;;;;5039998;28;20499;-85
2024/04/02 10:22:58;;;;;;;9.03;1.70;;;24.50;58.30;;;;;;5040612;28;20460;-88
2024/04/02 10:25:25;;;;;;;5.70;1.83;;;24.50;58.30;;;;;;5075836;28;20448;-89
2024/04/02 10:27:53;;;;;;;3.30;1.73;;;24.50;58.10;;;;;;5075526;28;20455;-90
2024/04/02 10:30:22;;;;;;;3.80;1.63;;;24.40;57.20;;;;;;5043651;28;20830;-89
2024/04/02 10:32:49;;;;;;;10.50;1.60;;;24.50;57.80;;;;;;5055085;28;20816;-87
2024/04/02 10:35:20;;;;;;;3.50;1.67;;;24.50;57.90;;;;;;5058460;28;20474;-88
2024/04/02 10:37:47;;;;;;;4.47;1.33;;;24.50;58.10;;;;;;5056388;28;20437;-85
2024/04/02 10:40:14;;;;;;;5.90;1.60;;;24.50;58.10;;;;;;5060070;28;20478;-85
2024/04/02 10:42:42;;;;;;;5.10;1.80;;;24.50;58.00;;;;;;5045713;28;20489;-87
2024/04/02 10:45:10;;;;;;;3.83;1.10;;;24.50;58.00;;;;;;5055320;28;20445;-86
2024/04/02 10:47:36;;;;;;;5.50;1.60;;;24.50;58.00;;;;;;5055263;28;20955;-85
2024/04/02 10:50:05;;;;;;;5.20;1.53;;;24.50;58.00;;;;;;5054684;28;20449;-86
2024/04/02 10:52:37;;;;;;;6.50;1.63;;;24.50;58.20;;;;;;5057470;28;20453;-84
2024/04/02 10:55:05;;;;;;;9.23;1.57;;;24.50;57.70;;;;;;5054460;28;20449;-90
2024/04/02 10:57:32;;;;;;;3.13;1.50;;;24.50;57.80;;;;;;5054600;28;20785;-86
2024/04/02 11:00:00;;;;;;;4.03;1.60;;;24.50;57.30;;;;;;5065788;28;20461;-85
2024/04/02 11:02:27;;;;;;;6.17;1.70;;;24.50;57.50;;;;;;5055888;28;20493;-86
2024/04/02 11:04:55;;;;;;;5.20;2.00;;;24.50;57.90;;;;;;5044675;28;20453;-85
2024/04/02 11:07:22;;;;;;;3.70;2.00;;;24.50;58.30;;;;;;5037628;28;20476;-86
2024/04/02 11:09:49;;;;;;;3.60;1.47;;;24.60;58.50;;;;;;5034663;28;20461;-88
2024/04/02 11:12:15;;;;;;;3.40;2.20;;;24.60;58.60;;;;;;5042330;28;20966;-86
2024/04/02 11:14:42;;;;;;;6.67;2.03;;;24.70;58.60;;;;;;5053369;28;20495;-83
2024/04/02 11:17:08;;;;;;;5.17;1.80;;;24.70;58.70;;;;;;5056942;28;20452;-84
2024/04/02 11:19:37;;;;;;;7.57;2.23;;;24.70;58.60;;;;;;5066911;28;20480;-82
2024/04/02 11:25:03;;;;;;;3.90;1.73;;;24.70;58.60;;;;;;5035577;28;20542;-85
2024/04/02 11:27:31;;;;;;;4.80;2.27;;;24.70;58.60;;;;;;5034721;28;20807;-84
2024/04/02 11:29:59;;;;;;;4.17;1.90;;;24.80;58.80;;;;;;5046618;28;20438;-84
2024/04/02 11:32:24;;;;;;;4.70;1.77;;;24.80;58.70;;;;;;5060815;28;20445;-84
2024/04/02 11:34:58;;;;;;;3.17;1.97;;;24.80;58.60;;;;;;5059074;28;20453;-83
2024/04/02 11:37:25;;;;;;;5.10;1.83;;;24.80;58.60;;;;;;5065244;28;20191;-83
2024/04/02 11:39:55;;;;;;;3.70;2.00;;;24.80;58.70;;;;;;5046391;28;20540;-85
2024/04/02 11:42:22;;;;;;;4.57;2.43;;;24.80;58.80;;;;;;5052974;28;20477;-85
2024/04/02 11:44:48;;;;;;;8.70;2.20;;;24.70;59.20;;;;;;5045780;28;20457;-85
2024/04/02 11:47:14;;;;;;;5.63;1.50;;;24.80;58.60;;;;;;5044694;28;21144;-83
2024/04/02 11:49:43;;;;;;;4.43;1.97;;;24.70;58.50;;;;;;5043609;28;20441;-85
2024/04/02 11:52:10;;;;;;;4.37;1.90;;;24.80;58.70;;;;;;5047512;28;20195;-85
2024/04/02 11:54:37;;;;;;;5.83;1.80;;;24.70;58.60;;;;;;5053892;28;20453;-89
2024/04/02 12:00:10;;;;;;;3.30;1.33;;;24.70;58.60;;;;;;5038685;28;20457;-83
2024/04/02 12:02:39;;;;;;;4.97;2.03;;;24.80;58.40;;;;;;5065416;28;20601;-82
2024/04/02 12:05:06;;;;;;;2.60;1.23;;;24.70;58.30;;;;;;5073009;28;20452;-84
2024/04/02 12:07:33;;;;;;;2.70;1.70;;;24.70;58.40;;;;;;5073154;28;20459;-81
2024/04/02 12:10:02;;;;;;;8.60;2.17;;;24.80;58.30;;;;;;5072782;28;20440;-82
2024/04/02 12:12:29;;;;;;;3.50;1.80;;;24.80;58.70;;;;;;5073074;28;20448;-82
2024/04/02 12:14:57;;;;;;;5.07;1.40;;;24.80;58.70;;;;;;5044740;28;20449;-82
2024/04/02 12:17:23;;;;;;;5.23;1.30;;;24.80;58.70;;;;;;5054922;28;20441;-84
2024/04/02 12:19:50;;;;;;;4.50;1.60;;;24.80;57.80;;;;;;5054342;28;20448;-84
2024/04/02 12:22:17;;;;;;;5.43;1.30;;;24.80;57.70;;;;;;5054974;28;20489;-83
2024/04/02 12:24:44;;;;;;;3.03;1.20;;;24.80;57.80;;;;;;5054855;28;20451;-84
2024/04/02 12:27:10;;;;;;;4.37;1.30;;;24.80;57.70;;;;;;5055004;28;20444;-84
2024/04/02 12:29:38;;;;;;;3.07;1.13;;;24.70;57.70;;;;;;5054731;28;20466;-84
2024/04/02 12:32:07;;;;;;;3.77;1.70;;;24.70;57.70;;;;;;5053766;28;20449;-85
2024/04/02 12:34:34;;;;;;;2.77;1.40;;;24.70;57.80;;;;;;5053719;28;20449;-84
2024/04/02 12:37:02;;;;;;;3.00;1.30;;;24.70;57.70;;;;;;5052891;28;20464;-84
2024/04/02 12:39:31;;;;;;;4.80;1.00;;;24.70;57.80;;;;;;5053186;28;20445;-84
2024/04/02 12:41:57;;;;;;;2.03;1.10;;;24.70;57.80;;;;;;5053562;28;20492;-84
2024/04/02 12:44:23;;;;;;;5.07;1.43;;;24.70;58.10;;;;;;5068695;28;20919;-86
2024/04/02 12:46:51;;;;;;;6.53;1.60;;;24.70;57.90;;;;;;5076720;28;20527;-92
2024/04/02 12:49:18;;;;;;;6.30;1.33;;;24.70;58.30;;;;;;5075955;28;20483;-92
2024/04/02 12:51:44;;;;;;;4.13;1.40;;;24.70;58.70;;;;;;5078933;28;20489;-90